Time;durP1;ratioP1;P1;durP2;ratioP2;P2;SDS_P1;SDS_P2;PMS_P1;PMS_P2;Temp;Humidity;BMP_temperature;BMP_pressure;BME280_temperature;BME280_humidity;BME280_pressure;Samples;Min_cycle;Max_cycle;Signal;HPM_P1;HPM_P2
2020/12/30 00:00:49;;;;;;;4.20;0.77;;;6.20;88.20;;;;;;4165577;28;20132;-85
2020/12/30 00:02:51;;;;;;;0.43;0.30;;;6.10;87.90;;;;;;4146144;28;20502;-85
2020/12/30 00:04:52;;;;;;;0.17;0.17;;;6.10;88.00;;;;;;4146381;28;20054;-84
2020/12/30 00:06:54;;;;;;;0.75;0.57;;;6.10;88.20;;;;;;4146134;28;20637;-85
2020/12/30 00:08:55;;;;;;;2.78;1.08;;;6.10;88.20;;;;;;4130534;28;20495;-86
2020/12/30 00:10:58;;;;;;;0.20;0.20;;;6.00;89.00;;;;;;4162645;28;20470;-84
2020/12/30 00:13:00;;;;;;;0.90;0.40;;;6.00;90.00;;;;;;4143947;28;20133;-85
2020/12/30 00:15:01;;;;;;;0.22;0.20;;;5.90;89.60;;;;;;4131105;28;20133;-84
2020/12/30 00:17:03;;;;;;;0.52;0.50;;;5.90;90.00;;;;;;4160083;28;20041;-84
2020/12/30 00:19:04;;;;;;;1.05;0.52;;;5.90;90.20;;;;;;4146685;28;20077;-85
2020/12/30 00:21:06;;;;;;;0.20;0.13;;;5.90;90.30;;;;;;4168527;28;20056;-86
2020/12/30 00:23:07;;;;;;;0.20;0.20;;;5.90;90.30;;;;;;4161349;28;20059;-85
2020/12/30 00:25:08;;;;;;;0.20;0.20;;;5.90;90.00;;;;;;4161357;28;20045;-84
2020/12/30 00:27:10;;;;;;;0.70;0.45;;;5.90;90.00;;;;;;4146953;28;20437;-85
2020/12/30 00:29:11;;;;;;;1.13;0.30;;;5.80;90.00;;;;;;4145346;28;20038;-85
2020/12/30 00:31:13;;;;;;;0.20;0.20;;;5.80;90.00;;;;;;4165798;28;20053;-84
2020/12/30 00:33:14;;;;;;;0.20;0.20;;;5.80;90.00;;;;;;4181799;28;20520;-85
2020/12/30 00:35:16;;;;;;;0.35;0.35;;;5.80;90.20;;;;;;4177790;28;20051;-85
2020/12/30 00:37:17;;;;;;;0.25;0.25;;;5.80;89.70;;;;;;4145256;28;20133;-86
2020/12/30 00:39:19;;;;;;;0.17;0.17;;;5.80;89.60;;;;;;4162422;28;20057;-85
2020/12/30 00:41:20;;;;;;;0.32;0.13;;;5.80;89.80;;;;;;4168393;28;20131;-83
2020/12/30 00:43:21;;;;;;;0.30;0.30;;;5.80;90.00;;;;;;4176070;28;20045;-84
2020/12/30 00:45:22;;;;;;;0.52;0.52;;;5.80;90.00;;;;;;4154815;28;20063;-84
2020/12/30 00:47:24;;;;;;;0.20;0.20;;;5.70;90.10;;;;;;4145958;28;20140;-84
2020/12/30 00:49:25;;;;;;;0.22;0.22;;;5.80;90.10;;;;;;4145962;28;20132;-85
2020/12/30 00:51:26;;;;;;;0.10;0.10;;;5.70;90.20;;;;;;4146577;28;20046;-84
2020/12/30 00:53:28;;;;;;;0.10;0.10;;;5.70;90.30;;;;;;4174252;28;20147;-85
2020/12/30 00:55:29;;;;;;;0.40;0.35;;;5.70;90.40;;;;;;4162263;28;20479;-84
2020/12/30 00:57:30;;;;;;;3.63;0.88;;;5.70;90.20;;;;;;4160992;28;20049;-84
2020/12/30 00:59:32;;;;;;;0.10;0.10;;;5.70;90.40;;;;;;4166436;28;20412;-85
2020/12/30 01:01:33;;;;;;;3.50;0.50;;;5.70;90.40;;;;;;4175982;28;20045;-84
2020/12/30 01:03:34;;;;;;;1.15;0.25;;;5.60;90.70;;;;;;4162181;28;20069;-85
2020/12/30 01:05:36;;;;;;;0.30;0.30;;;5.70;90.50;;;;;;4164871;28;20533;-84
2020/12/30 01:07:37;;;;;;;1.27;0.47;;;5.60;90.50;;;;;;4144793;28;20838;-85
2020/12/30 01:09:38;;;;;;;2.05;1.02;;;5.60;90.50;;;;;;4161024;28;20124;-86
2020/12/30 01:11:40;;;;;;;0.22;0.22;;;5.60;90.50;;;;;;4163113;28;20525;-85
2020/12/30 01:13:41;;;;;;;0.20;0.20;;;5.60;90.70;;;;;;4177283;28;20515;-85
2020/12/30 01:15:42;;;;;;;0.17;0.17;;;5.60;90.70;;;;;;4176192;28;20520;-89
2020/12/30 01:17:43;;;;;;;0.32;0.32;;;5.60;91.00;;;;;;4162989;28;20069;-85
2020/12/30 01:19:45;;;;;;;0.90;0.38;;;5.60;91.00;;;;;;4161958;28;20048;-84
2020/12/30 01:21:46;;;;;;;0.28;0.28;;;5.60;90.70;;;;;;4144230;28;20201;-84
2020/12/30 01:23:47;;;;;;;0.10;0.10;;;5.60;90.70;;;;;;4145595;28;20053;-85
2020/12/30 01:25:55;;;;;;;0.55;0.20;;;5.60;90.70;;;;;;4171561;28;20538;-85
2020/12/30 01:27:57;;;;;;;0.90;0.47;;;5.70;90.50;;;;;;4145827;28;20422;-87
2020/12/30 01:29:58;;;;;;;1.40;0.30;;;5.70;90.40;;;;;;4146338;28;20562;-85
2020/12/30 01:32:01;;;;;;;0.73;0.15;;;5.70;90.50;;;;;;4182112;28;20059;-84
2020/12/30 01:34:03;;;;;;;0.43;0.43;;;5.60;90.80;;;;;;4167568;28;20133;-85
2020/12/30 01:36:05;;;;;;;0.50;0.30;;;5.50;91.20;;;;;;4166116;28;20045;-85
2020/12/30 01:38:06;;;;;;;0.13;0.10;;;5.40;91.10;;;;;;4145561;28;20056;-85
2020/12/30 01:40:08;;;;;;;7.03;0.90;;;5.40;91.20;;;;;;4143827;28;20471;-85
2020/12/30 01:42:09;;;;;;;0.20;0.20;;;5.50;91.30;;;;;;4171705;28;20052;-85
2020/12/30 01:44:11;;;;;;;0.20;0.20;;;5.50;90.90;;;;;;4188176;28;20051;-87
2020/12/30 01:46:12;;;;;;;0.63;0.30;;;5.50;91.20;;;;;;4139242;28;20052;-85
2020/12/30 01:48:17;;;;;;;3.75;0.60;;;5.50;91.20;;;;;;4162453;28;20496;-85
2020/12/30 01:50:18;;;;;;;0.10;0.10;;;5.50;91.40;;;;;;4146281;28;20435;-85
2020/12/30 01:52:19;;;;;;;0.28;0.20;;;5.50;90.80;;;;;;4167555;28;20132;-84
2020/12/30 01:54:21;;;;;;;1.23;0.93;;;5.60;90.80;;;;;;4171102;28;20052;-85
2020/12/30 01:56:24;;;;;;;0.20;0.20;;;5.60;90.70;;;;;;4166822;28;20063;-87
2020/12/30 01:58:25;;;;;;;0.17;0.17;;;5.50;91.20;;;;;;4183446;28;20053;-87
2020/12/30 02:00:27;;;;;;;0.68;0.68;;;5.50;91.00;;;;;;4140538;28;20096;-85
2020/12/30 02:02:28;;;;;;;0.30;0.30;;;5.50;91.30;;;;;;4185495;28;20061;-84
2020/12/30 02:04:52;;;;;;;0.38;0.30;;;5.50;91.30;;;;;;4171816;28;20045;-85
2020/12/30 02:06:55;;;;;;;1.70;0.73;;;5.40;91.40;;;;;;4161232;28;20088;-85
2020/12/30 02:08:56;;;;;;;1.17;0.90;;;5.40;91.30;;;;;;4162477;28;20045;-85
2020/12/30 02:10:58;;;;;;;3.83;2.22;;;5.40;91.50;;;;;;4138646;28;20528;-87
2020/12/30 02:12:59;;;;;;;1.02;0.88;;;5.40;91.20;;;;;;4181144;28;20057;-85
2020/12/30 02:15:01;;;;;;;1.00;0.55;;;5.40;91.10;;;;;;4175763;28;20577;-84
2020/12/30 02:17:02;;;;;;;0.60;0.60;;;5.40;91.40;;;;;;4160531;28;20136;-84
2020/12/30 02:19:03;;;;;;;0.22;0.20;;;5.40;91.30;;;;;;4145629;28;20050;-85
2020/12/30 02:21:04;;;;;;;0.10;0.10;;;5.40;91.40;;;;;;4177779;28;20142;-84
2020/12/30 02:23:08;;;;;;;0.20;0.20;;;5.40;91.20;;;;;;4159268;28;20405;-85
2020/12/30 02:25:09;;;;;;;0.55;0.50;;;5.40;91.30;;;;;;4145600;28;20056;-83
2020/12/30 02:27:18;;;;;;;0.55;0.30;;;5.40;91.40;;;;;;4159756;28;20552;-84
2020/12/30 02:29:20;;;;;;;0.40;0.35;;;5.40;91.40;;;;;;4181417;28;20123;-84
2020/12/30 02:31:21;;;;;;;0.47;0.47;;;5.30;91.60;;;;;;4158475;28;20055;-84
2020/12/30 02:33:22;;;;;;;2.05;0.40;;;5.30;91.60;;;;;;4146791;28;20503;-85
2020/12/30 02:35:24;;;;;;;0.60;0.20;;;5.30;91.50;;;;;;4176668;28;20053;-85
2020/12/30 02:37:29;;;;;;;0.35;0.35;;;5.30;91.90;;;;;;4149263;28;20054;-84
2020/12/30 02:39:31;;;;;;;0.32;0.32;;;5.30;91.70;;;;;;4177674;28;20049;-85
2020/12/30 02:41:32;;;;;;;0.20;0.20;;;5.30;91.70;;;;;;4187189;28;20053;-84
2020/12/30 02:43:33;;;;;;;0.45;0.20;;;5.30;91.60;;;;;;4174652;28;20449;-84
2020/12/30 02:45:35;;;;;;;0.55;0.45;;;5.30;91.60;;;;;;4179089;28;20064;-84
2020/12/30 02:47:36;;;;;;;0.52;0.52;;;5.30;91.80;;;;;;4165227;28;20112;-84
2020/12/30 02:49:37;;;;;;;0.55;0.55;;;5.30;91.50;;;;;;4160574;28;20470;-84
2020/12/30 02:51:45;;;;;;;0.20;0.20;;;5.30;91.70;;;;;;4166399;28;20075;-84
2020/12/30 02:53:47;;;;;;;0.10;0.10;;;5.30;91.30;;;;;;4138575;28;20442;-85
2020/12/30 02:55:48;;;;;;;0.20;0.20;;;5.30;91.50;;;;;;4167524;28;20056;-84
2020/12/30 02:57:49;;;;;;;0.75;0.75;;;5.30;91.40;;;;;;4170905;28;20049;-85
2020/12/30 02:59:55;;;;;;;0.50;0.50;;;5.30;91.40;;;;;;4164919;28;20055;-85
2020/12/30 03:01:57;;;;;;;2.22;0.30;;;5.30;91.00;;;;;;4165185;28;20128;-84
2020/12/30 03:03:58;;;;;;;0.28;0.20;;;5.30;91.00;;;;;;4161327;28;20572;-85
2020/12/30 03:05:59;;;;;;;0.57;0.43;;;5.30;91.10;;;;;;4148133;28;20063;-84
2020/12/30 03:08:01;;;;;;;2.83;0.85;;;5.30;91.20;;;;;;4161953;28;20145;-84
2020/12/30 03:10:02;;;;;;;0.10;0.10;;;5.30;91.20;;;;;;4183931;28;20045;-84
2020/12/30 03:12:03;;;;;;;0.43;0.43;;;5.30;91.30;;;;;;4171333;28;20045;-85
2020/12/30 03:14:05;;;;;;;0.30;0.30;;;5.30;91.40;;;;;;4178431;28;20067;-86
2020/12/30 03:16:06;;;;;;;0.30;0.30;;;5.30;91.40;;;;;;4172782;28;20061;-84
2020/12/30 03:18:07;;;;;;;0.10;0.10;;;5.20;91.60;;;;;;4147816;28;20060;-84
2020/12/30 03:20:09;;;;;;;0.35;0.35;;;5.20;91.50;;;;;;4161763;28;20196;-84
2020/12/30 03:22:10;;;;;;;0.20;0.20;;;5.20;91.60;;;;;;4162271;28;20061;-85
2020/12/30 03:24:12;;;;;;;1.95;1.80;;;5.20;91.50;;;;;;4147881;28;20092;-85
2020/12/30 03:26:14;;;;;;;0.28;0.25;;;5.20;91.40;;;;;;4131875;28;20061;-85
2020/12/30 03:28:15;;;;;;;0.68;0.22;;;5.20;91.50;;;;;;4161797;28;20055;-85
2020/12/30 03:30:16;;;;;;;0.30;0.30;;;5.20;91.40;;;;;;4147600;28;20050;-85
2020/12/30 03:32:18;;;;;;;0.10;0.10;;;5.20;91.30;;;;;;4163981;28;20124;-89
2020/12/30 03:34:19;;;;;;;0.82;0.82;;;5.20;91.30;;;;;;4151263;28;20532;-84
2020/12/30 03:36:20;;;;;;;0.20;0.20;;;5.20;91.30;;;;;;4180204;28;20051;-85
2020/12/30 03:38:21;;;;;;;1.08;1.00;;;5.20;91.20;;;;;;4179228;28;20132;-84
2020/12/30 03:40:23;;;;;;;0.28;0.22;;;5.10;91.60;;;;;;4162957;28;20053;-84
2020/12/30 03:42:24;;;;;;;1.00;0.47;;;5.10;91.50;;;;;;4163020;28;20117;-86
2020/12/30 03:44:25;;;;;;;0.77;0.77;;;5.10;91.40;;;;;;4151178;28;20046;-85
2020/12/30 03:46:26;;;;;;;0.10;0.10;;;5.10;91.90;;;;;;4166292;28;20084;-87
2020/12/30 03:48:28;;;;;;;0.60;0.30;;;5.00;92.00;;;;;;4161258;28;20136;-84
2020/12/30 03:50:29;;;;;;;0.22;0.20;;;4.90;92.00;;;;;;4164502;28;20425;-84
2020/12/30 03:52:31;;;;;;;0.82;0.57;;;4.90;92.00;;;;;;4154603;28;20080;-84
2020/12/30 03:54:32;;;;;;;0.60;0.60;;;4.90;92.10;;;;;;4162499;28;20510;-84
2020/12/30 03:56:34;;;;;;;0.10;0.10;;;4.80;92.20;;;;;;4130959;28;20055;-84
2020/12/30 03:58:35;;;;;;;0.40;0.40;;;4.80;92.40;;;;;;4147032;28;20140;-85
2020/12/30 04:00:37;;;;;;;0.20;0.20;;;4.80;92.30;;;;;;4166942;28;20034;-85
2020/12/30 04:02:38;;;;;;;1.35;0.50;;;4.80;92.10;;;;;;4152364;28;20058;-87
2020/12/30 04:04:39;;;;;;;0.28;0.28;;;4.70;92.10;;;;;;4157811;28;20440;-84
2020/12/30 04:06:41;;;;;;;0.20;0.20;;;4.70;92.20;;;;;;4182813;28;20055;-85
2020/12/30 04:08:42;;;;;;;1.20;0.77;;;4.70;92.40;;;;;;4165099;28;20139;-87
2020/12/30 04:10:43;;;;;;;0.30;0.25;;;4.70;92.10;;;;;;4145405;28;20582;-85
2020/12/30 04:12:45;;;;;;;0.38;0.38;;;4.80;92.10;;;;;;4161484;28;20478;-85
2020/12/30 04:14:46;;;;;;;0.90;0.30;;;4.80;91.90;;;;;;4129457;28;20072;-85
2020/12/30 04:16:47;;;;;;;0.28;0.22;;;4.80;91.80;;;;;;4130125;28;20052;-84
2020/12/30 04:18:49;;;;;;;0.17;0.10;;;4.90;91.60;;;;;;4167379;28;20041;-88
2020/12/30 04:20:50;;;;;;;0.40;0.40;;;4.90;91.60;;;;;;4160379;28;20425;-84
2020/12/30 04:22:51;;;;;;;0.20;0.20;;;4.90;91.80;;;;;;4130191;28;20133;-85
2020/12/30 04:24:53;;;;;;;0.55;0.55;;;4.90;91.70;;;;;;4130421;28;20074;-84
2020/12/30 04:26:54;;;;;;;1.35;0.40;;;4.90;91.70;;;;;;4130894;28;20078;-85
2020/12/30 04:28:55;;;;;;;1.60;0.20;;;4.90;91.70;;;;;;4153608;28;20398;-85
2020/12/30 04:30:56;;;;;;;0.20;0.20;;;4.80;92.20;;;;;;4126048;28;20052;-85
2020/12/30 04:32:57;;;;;;;0.40;0.40;;;4.80;92.20;;;;;;4154866;28;20057;-85
2020/12/30 04:34:59;;;;;;;0.28;0.28;;;4.80;92.30;;;;;;4133373;28;20137;-85
2020/12/30 04:37:00;;;;;;;0.80;0.40;;;4.80;92.30;;;;;;4130256;28;20054;-84
2020/12/30 04:39:01;;;;;;;0.40;0.40;;;4.80;92.10;;;;;;4146422;28;20533;-84
2020/12/30 04:41:13;;;;;;;0.32;0.32;;;4.80;92.00;;;;;;4144864;28;20048;-85
2020/12/30 04:43:14;;;;;;;0.10;0.10;;;4.80;92.40;;;;;;4154653;28;20053;-86
2020/12/30 04:45:15;;;;;;;0.43;0.43;;;4.80;91.90;;;;;;4146529;28;20498;-85
2020/12/30 04:47:16;;;;;;;0.50;0.30;;;4.80;91.90;;;;;;4161389;28;20137;-85
2020/12/30 04:49:18;;;;;;;0.17;0.17;;;4.80;92.10;;;;;;4129196;28;20081;-84
2020/12/30 04:51:19;;;;;;;0.15;0.15;;;4.80;91.90;;;;;;4129594;28;20050;-85
2020/12/30 04:53:21;;;;;;;0.13;0.13;;;4.80;91.90;;;;;;4148409;28;20054;-85
2020/12/30 04:55:23;;;;;;;0.10;0.10;;;4.80;92.40;;;;;;4128976;28;20065;-88
2020/12/30 04:57:49;;;;;;;0.10;0.10;;;4.70;92.40;;;;;;4146272;28;20599;-85
2020/12/30 04:59:52;;;;;;;0.25;0.25;;;4.70;92.30;;;;;;4159278;28;20058;-84
2020/12/30 05:02:02;;;;;;;0.17;0.17;;;4.80;92.10;;;;;;4127970;28;20048;-84
2020/12/30 05:04:03;;;;;;;0.10;0.10;;;4.70;92.10;;;;;;4142903;28;20045;-86
2020/12/30 05:06:05;;;;;;;0.10;0.10;;;4.80;92.00;;;;;;4130250;28;20101;-84
2020/12/30 05:08:13;;;;;;;0.25;0.25;;;4.80;92.00;;;;;;4164683;28;20041;-87
2020/12/30 05:10:15;;;;;;;0.40;0.40;;;4.80;92.40;;;;;;4157804;28;20457;-85
2020/12/30 05:12:18;;;;;;;0.30;0.30;;;4.80;92.40;;;;;;4137929;28;20136;-85
2020/12/30 05:14:19;;;;;;;0.52;0.50;;;4.80;92.40;;;;;;4176806;28;20128;-84
2020/12/30 05:16:21;;;;;;;0.10;0.10;;;4.70;92.80;;;;;;4155646;28;20041;-87
2020/12/30 05:18:22;;;;;;;0.22;0.22;;;4.70;92.80;;;;;;4160165;28;20069;-85
2020/12/30 05:20:24;;;;;;;0.75;0.73;;;4.70;92.70;;;;;;4146693;28;20046;-85
2020/12/30 05:22:25;;;;;;;0.88;0.85;;;4.80;92.30;;;;;;4168090;28;20068;-85
2020/12/30 05:24:30;;;;;;;0.35;0.30;;;4.80;92.20;;;;;;4160593;28;20057;-85
2020/12/30 05:26:32;;;;;;;0.40;0.32;;;4.80;92.50;;;;;;4168292;28;20045;-84
2020/12/30 05:28:33;;;;;;;0.43;0.30;;;4.80;92.30;;;;;;4159504;28;20421;-86
2020/12/30 05:30:36;;;;;;;0.40;0.40;;;4.80;92.30;;;;;;4179245;28;20053;-84
2020/12/30 05:32:38;;;;;;;1.40;0.20;;;4.80;92.30;;;;;;4145233;28;20487;-84
2020/12/30 05:34:39;;;;;;;1.00;0.70;;;4.80;92.30;;;;;;4171187;28;20038;-84
2020/12/30 05:36:40;;;;;;;0.10;0.10;;;4.80;92.30;;;;;;4160036;28;20056;-85
2020/12/30 05:38:42;;;;;;;0.43;0.30;;;4.80;92.20;;;;;;4142476;28;20050;-85
2020/12/30 05:40:43;;;;;;;0.25;0.22;;;4.80;92.10;;;;;;4174256;28;20042;-84
2020/12/30 05:42:44;;;;;;;0.20;0.20;;;4.90;92.10;;;;;;4170091;28;20421;-85
2020/12/30 05:44:47;;;;;;;1.50;0.25;;;4.90;92.20;;;;;;4145602;28;20157;-85
2020/12/30 05:46:49;;;;;;;0.82;0.43;;;4.90;92.10;;;;;;4143574;28;20136;-83
2020/12/30 05:48:52;;;;;;;0.17;0.17;;;4.90;92.30;;;;;;4161709;28;20045;-88
2020/12/30 05:50:55;;;;;;;0.25;0.25;;;4.80;92.40;;;;;;4180969;28;20398;-85
2020/12/30 05:52:56;;;;;;;0.10;0.10;;;4.80;92.60;;;;;;4184093;28;20041;-87
2020/12/30 05:55:01;;;;;;;0.65;0.40;;;4.80;92.60;;;;;;4154727;28;20080;-88
2020/12/30 05:57:18;;;;;;;0.38;0.30;;;4.90;92.40;;;;;;4161402;28;20042;-88
2020/12/30 05:59:20;;;;;;;0.55;0.55;;;4.90;92.30;;;;;;4179377;28;20053;-88
2020/12/30 06:01:25;;;;;;;0.30;0.30;;;4.90;92.40;;;;;;4177346;28;20500;-88
2020/12/30 06:03:28;;;;;;;0.57;0.50;;;4.90;92.30;;;;;;4177978;28;20056;-88
2020/12/30 06:05:29;;;;;;;0.30;0.30;;;4.80;92.60;;;;;;4177101;28;20045;-88
2020/12/30 06:07:31;;;;;;;0.60;0.20;;;4.80;92.90;;;;;;4189871;28;20056;-89
2020/12/30 06:09:38;;;;;;;0.20;0.20;;;4.90;92.40;;;;;;4180203;28;20047;-87
2020/12/30 06:11:39;;;;;;;0.20;0.20;;;4.90;92.20;;;;;;4189935;28;20051;-88
2020/12/30 06:13:41;;;;;;;0.98;0.50;;;4.90;92.10;;;;;;4185795;28;20091;-88
2020/12/30 06:15:42;;;;;;;1.98;1.00;;;4.90;92.50;;;;;;4178782;28;20046;-87
2020/12/30 06:18:02;;;;;;;0.30;0.30;;;4.90;92.30;;;;;;4188999;28;20048;-88
2020/12/30 06:20:04;;;;;;;0.68;0.40;;;4.90;92.30;;;;;;4190411;28;20050;-88
2020/12/30 06:22:05;;;;;;;0.10;0.10;;;4.90;92.50;;;;;;4150016;28;20549;-87
2020/12/30 06:24:10;;;;;;;0.75;0.22;;;4.90;92.60;;;;;;4149941;28;20065;-88
2020/12/30 06:26:12;;;;;;;0.20;0.20;;;4.90;92.60;;;;;;4188212;28;20049;-88
2020/12/30 06:28:15;;;;;;;0.22;0.22;;;4.90;92.90;;;;;;4177995;28;20300;-88
2020/12/30 06:30:16;;;;;;;0.25;0.25;;;4.80;93.10;;;;;;4183150;28;20055;-88
2020/12/30 06:32:31;;;;;;;2.20;0.63;;;4.90;92.80;;;;;;4162618;28;20045;-88
2020/12/30 06:34:35;;;;;;;2.75;1.00;;;4.80;93.10;;;;;;4179919;28;20520;-86
2020/12/30 06:36:37;;;;;;;0.25;0.25;;;4.80;93.20;;;;;;4164276;28;20047;-88
2020/12/30 06:38:41;;;;;;;0.17;0.10;;;4.90;93.00;;;;;;4148538;28;20053;-88
2020/12/30 06:40:54;;;;;;;0.10;0.10;;;4.90;93.30;;;;;;4173958;28;20045;-88
2020/12/30 06:43:00;;;;;;;0.30;0.22;;;4.80;93.20;;;;;;4167451;28;20049;-89
2020/12/30 06:45:01;;;;;;;0.10;0.10;;;4.90;93.10;;;;;;4166885;28;20052;-88
2020/12/30 06:47:03;;;;;;;0.75;0.63;;;4.90;93.40;;;;;;4175651;28;20398;-88
2020/12/30 06:49:05;;;;;;;1.38;0.98;;;4.90;93.30;;;;;;4172285;28;20044;-86
2020/12/30 06:51:15;;;;;;;0.30;0.30;;;4.90;93.60;;;;;;4169392;28;20057;-87
2020/12/30 06:53:32;;;;;;;0.73;0.73;;;4.90;93.40;;;;;;4194435;28;20045;-88
2020/12/30 06:55:43;;;;;;;0.10;0.10;;;4.90;93.30;;;;;;4145191;28;20617;-89
2020/12/30 06:57:44;;;;;;;2.92;1.48;;;4.90;93.00;;;;;;4179642;28;20041;-89
2020/12/30 06:59:46;;;;;;;1.95;0.38;;;4.90;93.00;;;;;;4161579;28;20057;-88
2020/12/30 07:01:59;;;;;;;0.45;0.35;;;4.90;92.90;;;;;;4191945;28;20074;-91
2020/12/30 07:04:07;;;;;;;0.40;0.40;;;4.90;93.90;;;;;;4156911;28;20551;-88
2020/12/30 07:06:30;;;;;;;0.68;0.68;;;4.80;93.90;;;;;;4149872;28;20576;-87
2020/12/30 07:08:38;;;;;;;0.30;0.30;;;4.90;93.70;;;;;;4201563;28;20056;-89
2020/12/30 07:10:43;;;;;;;0.25;0.25;;;4.90;94.10;;;;;;4159262;28;20053;-87
2020/12/30 07:12:44;;;;;;;2.85;0.57;;;4.90;93.70;;;;;;4162877;28;20388;-86
2020/12/30 07:14:45;;;;;;;0.10;0.10;;;4.90;94.70;;;;;;4177355;28;20045;-86
2020/12/30 07:16:53;;;;;;;0.90;0.90;;;4.90;95.10;;;;;;4156683;28;20415;-86
2020/12/30 07:18:55;;;;;;;0.70;0.20;;;4.80;96.10;;;;;;4163317;28;20041;-85
2020/12/30 07:20:56;;;;;;;0.85;0.30;;;4.80;96.80;;;;;;4161032;28;20049;-86
2020/12/30 07:23:05;;;;;;;0.10;0.10;;;4.70;97.20;;;;;;4161047;28;20041;-86
2020/12/30 07:25:07;;;;;;;0.15;0.15;;;4.70;97.70;;;;;;4131633;28;20093;-86
2020/12/30 07:27:12;;;;;;;0.20;0.20;;;4.60;97.80;;;;;;4161614;28;20049;-86
2020/12/30 07:29:16;;;;;;;0.20;0.20;;;4.60;97.90;;;;;;4131482;28;20093;-86
2020/12/30 07:31:17;;;;;;;0.10;0.10;;;4.70;98.50;;;;;;4148202;28;20060;-86
2020/12/30 07:33:19;;;;;;;0.10;0.10;;;4.70;98.10;;;;;;4131762;28;20042;-86
2020/12/30 07:35:21;;;;;;;0.10;0.10;;;4.60;98.50;;;;;;4163911;28;20498;-86
2020/12/30 07:37:22;;;;;;;0.22;0.22;;;4.60;98.30;;;;;;4148550;28;20105;-86
2020/12/30 07:39:34;;;;;;;0.10;0.10;;;4.70;98.60;;;;;;4131491;28;20125;-86
2020/12/30 07:41:36;;;;;;;0.20;0.20;;;4.60;98.40;;;;;;4132074;28;20050;-86
2020/12/30 07:43:47;;;;;;;0.45;0.30;;;4.60;98.70;;;;;;4163184;28;20278;-86
2020/12/30 07:45:49;;;;;;;0.82;0.82;;;4.60;99.00;;;;;;4153627;28;20052;-86
2020/12/30 07:47:52;;;;;;;0.10;0.10;;;4.60;98.80;;;;;;4173432;28;20075;-85
2020/12/30 07:50:03;;;;;;;0.30;0.30;;;4.70;98.60;;;;;;4161197;28;20057;-85
2020/12/30 07:52:04;;;;;;;0.20;0.20;;;4.60;98.90;;;;;;4147801;28;20053;-86
2020/12/30 07:54:06;;;;;;;0.10;0.10;;;4.50;99.20;;;;;;4148947;28;20052;-85
2020/12/30 07:56:24;;;;;;;0.10;0.10;;;4.50;99.50;;;;;;4148061;28;20057;-86
2020/12/30 07:58:25;;;;;;;0.10;0.10;;;4.50;99.50;;;;;;4164404;28;20129;-86
2020/12/30 08:00:29;;;;;;;0.10;0.10;;;4.40;99.70;;;;;;4167105;28;20049;-83
2020/12/30 08:02:30;;;;;;;1.38;0.22;;;4.50;99.60;;;;;;4182892;28;20073;-83
2020/12/30 08:04:33;;;;;;;1.05;0.55;;;4.50;99.60;;;;;;4168272;28;20060;-83
2020/12/30 08:06:44;;;;;;;0.10;0.10;;;4.50;99.50;;;;;;4145126;28;20090;-85
2020/12/30 08:08:47;;;;;;;0.20;0.20;;;4.40;99.50;;;;;;4170660;28;20072;-87
2020/12/30 08:10:49;;;;;;;0.10;0.10;;;4.40;99.80;;;;;;4146219;28;20399;-85
2020/12/30 08:12:50;;;;;;;0.20;0.20;;;4.40;99.70;;;;;;4137586;28;20061;-87
2020/12/30 08:14:52;;;;;;;0.10;0.10;;;4.40;99.80;;;;;;4147100;28;20048;-85
2020/12/30 08:17:12;;;;;;;0.20;0.20;;;4.40;99.40;;;;;;4126758;28;20042;-84
2020/12/30 08:19:48;;;;;;;0.40;0.40;;;4.40;99.90;;;;;;4130130;28;20077;-85
2020/12/30 08:21:56;;;;;;;0.20;0.20;;;4.40;99.90;;;;;;4179831;28;20055;-87
2020/12/30 08:24:08;;;;;;;0.20;0.20;;;4.30;99.60;;;;;;4159920;28;20049;-85
2020/12/30 08:26:10;;;;;;;0.13;0.13;;;4.20;99.90;;;;;;4173543;28;20053;-86
2020/12/30 08:28:11;;;;;;;0.20;0.20;;;4.20;99.90;;;;;;4180652;28;20120;-86
2020/12/30 08:30:13;;;;;;;0.15;0.15;;;4.20;99.90;;;;;;4162843;28;20190;-84
2020/12/30 08:32:18;;;;;;;0.30;0.30;;;4.20;99.90;;;;;;4147173;28;20522;-84
2020/12/30 08:34:21;;;;;;;0.20;0.20;;;4.20;99.90;;;;;;4160979;28;20048;-86
2020/12/30 08:36:25;;;;;;;0.20;0.20;;;4.20;99.90;;;;;;4165497;28;20061;-87
2020/12/30 08:38:26;;;;;;;0.32;0.32;;;4.20;99.90;;;;;;4175626;28;20049;-86
2020/12/30 08:40:31;;;;;;;0.20;0.20;;;4.20;99.90;;;;;;4179850;28;20170;-86
2020/12/30 08:43:10;;;;;;;0.10;0.10;;;4.10;99.90;;;;;;4179523;28;20053;-86
2020/12/30 08:45:12;;;;;;;0.10;0.10;;;4.00;99.90;;;;;;4180354;28;20051;-87
2020/12/30 08:47:13;;;;;;;0.20;0.20;;;4.00;99.90;;;;;;4178372;28;20052;-87
2020/12/30 08:49:16;;;;;;;0.10;0.10;;;3.90;99.90;;;;;;4170400;28;20063;-86
2020/12/30 08:51:31;;;;;;;0.10;0.10;;;3.80;99.90;;;;;;4146921;28;20053;-86
2020/12/30 08:53:41;;;;;;;0.33;0.33;;;3.80;99.90;;;;;;4178509;28;20550;-87
2020/12/30 08:55:42;;;;;;;0.52;0.52;;;3.80;99.90;;;;;;4147019;28;20096;-86
2020/12/30 08:57:47;;;;;;;0.30;0.30;;;3.70;99.90;;;;;;4133168;28;20042;-86
2020/12/30 08:59:48;;;;;;;0.20;0.20;;;3.60;99.90;;;;;;4177016;28;20083;-85
2020/12/30 09:01:49;;;;;;;0.20;0.20;;;3.50;99.90;;;;;;4146961;28;20046;-85
2020/12/30 09:03:52;;;;;;;0.20;0.20;;;3.40;99.90;;;;;;4167244;28;20424;-86
2020/12/30 09:05:57;;;;;;;0.30;0.30;;;3.40;99.90;;;;;;4163636;28;20053;-85
2020/12/30 09:08:14;;;;;;;0.30;0.30;;;3.30;99.90;;;;;;4145708;28;20133;-85
2020/12/30 09:10:16;;;;;;;0.20;0.20;;;3.20;99.90;;;;;;4172517;28;20104;-86
2020/12/30 09:12:23;;;;;;;0.20;0.20;;;3.00;99.90;;;;;;4163777;28;20049;-85
2020/12/30 09:14:25;;;;;;;0.25;0.25;;;2.70;99.90;;;;;;4170216;28;20064;-86
2020/12/30 09:16:26;;;;;;;0.50;0.38;;;2.80;99.90;;;;;;4175326;28;20207;-87
2020/12/30 09:18:27;;;;;;;0.30;0.30;;;2.80;99.90;;;;;;4179841;28;20060;-86
2020/12/30 09:20:30;;;;;;;0.22;0.22;;;2.70;99.90;;;;;;4163703;28;20514;-86
2020/12/30 09:22:32;;;;;;;0.25;0.25;;;2.80;99.90;;;;;;4147851;28;20052;-86
2020/12/30 09:24:37;;;;;;;0.30;0.30;;;2.80;99.90;;;;;;4147869;28;20133;-86
2020/12/30 09:26:39;;;;;;;0.30;0.30;;;2.80;99.90;;;;;;4180135;28;20113;-86
2020/12/30 09:28:40;;;;;;;0.17;0.17;;;2.80;99.90;;;;;;4188036;28;20072;-85
2020/12/30 09:30:41;;;;;;;0.32;0.32;;;2.70;99.90;;;;;;4166833;28;20084;-86
2020/12/30 09:32:44;;;;;;;0.30;0.30;;;2.80;99.90;;;;;;4197690;28;20139;-86
2020/12/30 09:34:58;;;;;;;0.10;0.10;;;2.80;99.90;;;;;;4163599;28;20204;-86
2020/12/30 09:36:59;;;;;;;0.30;0.30;;;2.80;99.90;;;;;;4154984;28;20057;-86
2020/12/30 09:39:00;;;;;;;0.30;0.30;;;2.80;99.90;;;;;;4149283;28;20128;-87
2020/12/30 09:41:11;;;;;;;0.20;0.20;;;2.80;99.90;;;;;;4174339;28;20073;-86
2020/12/30 09:43:17;;;;;;;0.30;0.30;;;2.70;99.90;;;;;;4183235;28;20123;-87
2020/12/30 09:45:20;;;;;;;0.30;0.30;;;2.70;99.90;;;;;;4182310;28;20045;-86
2020/12/30 09:47:21;;;;;;;0.32;0.32;;;2.60;99.90;;;;;;4164397;28;20054;-85
2020/12/30 09:49:22;;;;;;;0.20;0.20;;;2.60;99.90;;;;;;4142840;28;20050;-86
2020/12/30 09:51:25;;;;;;;0.13;0.13;;;2.70;99.90;;;;;;4179100;28;20053;-85
2020/12/30 09:53:26;;;;;;;0.20;0.20;;;2.70;99.90;;;;;;4179751;28;20095;-86
2020/12/30 09:55:27;;;;;;;0.30;0.30;;;2.70;99.90;;;;;;4140425;28;20053;-86
2020/12/30 09:57:29;;;;;;;0.10;0.10;;;2.60;99.90;;;;;;4146817;28;20049;-86
2020/12/30 09:59:30;;;;;;;0.32;0.30;;;2.60;99.90;;;;;;4175322;28;20132;-86
2020/12/30 10:01:31;;;;;;;0.20;0.20;;;2.70;99.90;;;;;;4160153;28;20063;-85
2020/12/30 10:03:33;;;;;;;0.40;0.40;;;2.60;99.90;;;;;;4193857;28;20059;-85
2020/12/30 10:05:34;;;;;;;0.30;0.30;;;2.70;99.90;;;;;;4163414;28;20129;-86
2020/12/30 10:07:35;;;;;;;0.15;0.15;;;2.70;99.90;;;;;;4144884;28;20058;-86
2020/12/30 10:09:38;;;;;;;0.13;0.13;;;2.80;99.90;;;;;;4177551;28;20050;-86
2020/12/30 10:11:39;;;;;;;0.10;0.10;;;2.80;99.90;;;;;;4167696;28;20065;-86
2020/12/30 10:13:40;;;;;;;0.20;0.20;;;2.80;99.90;;;;;;4141529;28;20502;-86
2020/12/30 10:15:41;;;;;;;1.35;0.47;;;2.70;99.90;;;;;;4166688;28;20048;-86
2020/12/30 10:17:43;;;;;;;0.20;0.20;;;2.70;99.90;;;;;;4162666;28;20042;-86
2020/12/30 10:19:44;;;;;;;0.57;0.57;;;2.80;99.90;;;;;;4179115;28;20112;-85
2020/12/30 10:21:45;;;;;;;0.55;0.30;;;2.80;99.90;;;;;;4166066;28;20075;-86
2020/12/30 10:23:46;;;;;;;0.10;0.10;;;2.90;99.90;;;;;;4142464;28;20080;-86
2020/12/30 10:25:47;;;;;;;0.20;0.20;;;2.80;99.90;;;;;;4162298;28;20473;-87
2020/12/30 10:27:50;;;;;;;0.32;0.32;;;2.90;99.90;;;;;;4150797;28;20572;-86
2020/12/30 10:29:51;;;;;;;0.20;0.20;;;2.90;99.90;;;;;;4147171;28;20054;-86
2020/12/30 10:31:52;;;;;;;0.40;0.38;;;2.90;99.90;;;;;;4176016;28;20060;-86
2020/12/30 10:33:54;;;;;;;0.10;0.10;;;3.00;99.90;;;;;;4146392;28;20050;-86
2020/12/30 10:35:55;;;;;;;0.30;0.30;;;3.00;99.90;;;;;;4146635;28;20140;-86
2020/12/30 10:37:56;;;;;;;0.80;0.80;;;3.10;99.90;;;;;;4146558;28;20050;-86
2020/12/30 10:39:58;;;;;;;0.20;0.20;;;3.10;99.90;;;;;;4145986;28;20073;-86
2020/12/30 10:41:59;;;;;;;0.30;0.30;;;3.10;99.90;;;;;;4163076;28;20636;-86
2020/12/30 10:44:01;;;;;;;0.30;0.30;;;3.20;99.90;;;;;;4159116;28;20053;-86
2020/12/30 10:46:02;;;;;;;0.20;0.20;;;3.20;99.90;;;;;;4177629;28;20521;-86
2020/12/30 10:48:03;;;;;;;0.20;0.20;;;3.30;99.90;;;;;;4177263;28;20516;-86
2020/12/30 10:50:06;;;;;;;0.15;0.15;;;3.30;99.90;;;;;;4173093;28;20136;-86